Time;durP1;ratioP1;P1;durP2;ratioP2;P2;SDS_P1;SDS_P2;PMS_P1;PMS_P2;Temp;Humidity;BMP_temperature;BMP_pressure;BME280_temperature;BME280_humidity;BME280_pressure;Samples;Min_cycle;Max_cycle;Signal;HPM_P1;HPM_P2
2021/06/08 00:02:05;;;;;;;;;;;;;;;22.32;52.63;100756.16;5017520;28;1200;-61
2021/06/08 00:04:30;;;;;;;;;;;;;;;22.45;52.26;100747.00;5039082;28;812;-62
2021/06/08 00:06:55;;;;;;;;;;;;;;;22.21;52.91;100750.84;5039025;28;784;-62
2021/06/08 00:09:21;;;;;;;;;;;;;;;22.34;52.34;100746.44;5038884;28;749;-62
2021/06/08 00:11:46;;;;;;;;;;;;;;;22.45;52.17;100737.88;5038782;28;820;-62
2021/06/08 00:14:12;;;;;;;;;;;;;;;22.43;52.28;100740.97;5038841;28;1914;-62
2021/06/08 00:16:37;;;;;;;;;;;;;;;22.22;52.93;100746.94;5038898;28;1265;-62
2021/06/08 00:19:03;;;;;;;;;;;;;;;22.38;52.37;100738.31;5037943;28;1003;-62
2021/06/08 00:21:28;;;;;;;;;;;;;;;22.51;51.85;100737.44;5038801;28;860;-61
2021/06/08 00:23:54;;;;;;;;;;;;;;;22.54;51.82;100736.78;5038907;28;820;-61
2021/06/08 00:26:20;;;;;;;;;;;;;;;22.40;52.22;100733.28;5038235;28;808;-62
2021/06/08 00:28:45;;;;;;;;;;;;;;;22.34;52.34;100731.75;5021474;28;745;-62
2021/06/08 00:31:11;;;;;;;;;;;;;;;22.43;52.21;100724.34;5038633;28;792;-61
2021/06/08 00:33:36;;;;;;;;;;;;;;;22.55;51.88;100727.34;5036722;28;1973;-62
2021/06/08 00:36:02;;;;;;;;;;;;;;;22.51;52.04;100722.75;5038964;28;799;-62
2021/06/08 00:38:27;;;;;;;;;;;;;;;22.59;51.85;100723.94;5020832;28;785;-61
2021/06/08 00:40:52;;;;;;;;;;;;;;;22.51;52.07;100715.25;5020207;28;1215;-62
2021/06/08 00:43:22;;;;;;;;;;;;;;;22.67;51.86;100724.00;5038519;28;760;-62
2021/06/08 00:45:48;;;;;;;;;;;;;;;22.42;52.30;100722.69;5038655;28;812;-62
2021/06/08 00:48:14;;;;;;;;;;;;;;;22.54;51.98;100719.38;5037541;28;949;-62
2021/06/08 00:50:40;;;;;;;;;;;;;;;22.49;52.25;100720.28;5038515;28;780;-62
2021/06/08 00:53:05;;;;;;;;;;;;;;;22.55;51.83;100719.03;5038220;28;804;-62
2021/06/08 00:55:31;;;;;;;;;;;;;;;21.80;54.22;100720.50;5037841;28;1918;-61
2021/06/08 00:57:56;;;;;;;;;;;;;;;21.36;55.08;100720.00;5038233;28;849;-61
2021/06/08 01:00:21;;;;;;;;;;;;;;;21.37;55.46;100718.88;5037927;28;795;-64
2021/06/08 01:02:48;;;;;;;;;;;;;;;21.93;53.67;100716.88;5019253;28;1133;-62
2021/06/08 01:05:14;;;;;;;;;;;;;;;22.09;52.95;100711.81;5036873;28;1266;-62
2021/06/08 01:07:39;;;;;;;;;;;;;;;22.29;52.45;100704.16;5037858;28;776;-63
2021/06/08 01:10:06;;;;;;;;;;;;;;;22.27;52.72;100707.22;5035892;28;916;-64
2021/06/08 01:12:31;;;;;;;;;;;;;;;22.34;52.43;100706.81;5037869;28;764;-63
2021/06/08 01:14:56;;;;;;;;;;;;;;;22.42;52.04;100706.06;5037919;28;1910;-63
2021/06/08 01:17:22;;;;;;;;;;;;;;;22.29;52.45;100709.69;5016347;28;1124;-64
2021/06/08 01:19:47;;;;;;;;;;;;;;;22.39;52.23;100712.25;5018043;28;753;-64
2021/06/08 01:22:16;;;;;;;;;;;;;;;22.35;52.24;100712.03;5017674;28;800;-63
2021/06/08 01:24:43;;;;;;;;;;;;;;;22.36;52.33;100710.09;5016473;28;816;-52
2021/06/08 01:27:09;;;;;;;;;;;;;;;22.15;52.74;100705.03;5017875;28;764;-62
2021/06/08 01:29:35;;;;;;;;;;;;;;;22.36;52.24;100707.34;4999873;28;862;-63
2021/06/08 01:32:02;;;;;;;;;;;;;;;22.28;52.36;100705.28;5017228;28;975;-63
2021/06/08 01:34:27;;;;;;;;;;;;;;;22.39;52.11;100706.69;5017305;28;1985;-62
2021/06/08 01:36:52;;;;;;;;;;;;;;;22.44;52.11;100708.50;5016700;28;761;-64
2021/06/08 01:39:18;;;;;;;;;;;;;;;22.35;52.32;100708.47;5016271;28;761;-63
2021/06/08 01:41:43;;;;;;;;;;;;;;;22.12;52.92;100719.50;5017411;28;776;-64
2021/06/08 01:44:11;;;;;;;;;;;;;;;22.22;52.73;100710.94;5016546;28;865;-62
2021/06/08 01:46:37;;;;;;;;;;;;;;;22.39;52.19;100715.00;5016052;28;840;-61
2021/06/08 01:49:02;;;;;;;;;;;;;;;22.35;52.39;100716.78;5016772;28;992;-63
2021/06/08 01:51:31;;;;;;;;;;;;;;;22.47;52.11;100711.47;5017377;28;812;-62
2021/06/08 01:54:15;;;;;;;;;;;;;;;22.63;51.59;100706.38;5017252;28;1903;-63
2021/06/08 01:56:40;;;;;;;;;;;;;;;22.32;52.54;100709.88;5017154;28;864;-62
2021/06/08 01:59:09;;;;;;;;;;;;;;;22.48;52.01;100715.91;5016121;28;820;-63
2021/06/08 02:01:45;;;;;;;;;;;;;;;22.56;51.68;100717.88;5016873;28;1080;-64
2021/06/08 02:04:13;;;;;;;;;;;;;;;22.52;52.03;100718.84;5013289;28;929;-63
2021/06/08 02:06:42;;;;;;;;;;;;;;;22.63;51.69;100722.19;5017194;28;721;-63
2021/06/08 02:09:14;;;;;;;;;;;;;;;22.53;52.02;100726.03;5031945;28;867;-63
2021/06/08 02:11:58;;;;;;;;;;;;;;;22.44;52.28;100720.44;5015389;28;827;-63
2021/06/08 02:14:36;;;;;;;;;;;;;;;21.62;54.39;100723.09;5017103;28;1919;-62
2021/06/08 02:17:04;;;;;;;;;;;;;;;21.33;55.19;100723.38;5031325;28;1147;-63
2021/06/08 02:19:30;;;;;;;;;;;;;;;21.73;54.25;100736.69;5016961;28;792;-64
2021/06/08 02:21:56;;;;;;;;;;;;;;;22.06;53.27;100723.50;5015595;28;875;-64
2021/06/08 02:24:22;;;;;;;;;;;;;;;22.19;52.66;100730.97;5016758;28;769;-61
2021/06/08 02:26:47;;;;;;;;;;;;;;;22.43;52.13;100724.34;5015675;28;804;-61
2021/06/08 02:29:13;;;;;;;;;;;;;;;22.29;52.62;100726.31;5015720;28;753;-60
2021/06/08 02:31:39;;;;;;;;;;;;;;;22.38;51.99;100721.69;5016317;28;844;-62
2021/06/08 02:34:05;;;;;;;;;;;;;;;22.51;51.92;100720.81;5013399;28;1985;-57
2021/06/08 02:36:30;;;;;;;;;;;;;;;22.59;51.66;100727.53;5017053;28;816;-57
2021/06/08 02:38:56;;;;;;;;;;;;;;;22.42;52.16;100721.88;5016670;28;756;-56
2021/06/08 02:41:21;;;;;;;;;;;;;;;22.44;51.82;100720.44;5015491;28;853;-56
2021/06/08 02:43:47;;;;;;;;;;;;;;;22.44;51.89;100730.69;5015426;28;776;-56
2021/06/08 02:46:12;;;;;;;;;;;;;;;22.44;51.97;100733.44;5015201;28;869;-56
2021/06/08 02:48:38;;;;;;;;;;;;;;;22.47;51.87;100730.88;5014997;28;1015;-56
2021/06/08 02:51:04;;;;;;;;;;;;;;;22.32;52.49;100740.34;5016513;28;820;-56
2021/06/08 02:53:29;;;;;;;;;;;;;;;22.31;52.33;100726.81;5015289;28;1910;-57
2021/06/08 02:55:54;;;;;;;;;;;;;;;22.30;52.45;100723.22;5015455;28;768;-56
2021/06/08 02:58:20;;;;;;;;;;;;;;;22.44;51.84;100723.22;5018202;28;1213;-55
2021/06/08 03:00:45;;;;;;;;;;;;;;;22.58;51.73;100725.06;5019205;28;744;-56
2021/06/08 03:03:12;;;;;;;;;;;;;;;22.52;51.64;100716.88;5018970;28;1212;-56
2021/06/08 03:05:38;;;;;;;;;;;;;;;22.54;51.74;100720.16;5019266;28;800;-57
2021/06/08 03:08:05;;;;;;;;;;;;;;;22.46;51.95;100720.13;5018981;28;852;-56
2021/06/08 03:10:31;;;;;;;;;;;;;;;22.32;52.36;100718.19;5019137;28;812;-56
2021/06/08 03:12:57;;;;;;;;;;;;;;;22.02;53.00;100726.09;5020292;28;817;-56
2021/06/08 03:15:29;;;;;;;;;;;;;;;21.42;54.95;100717.94;5019071;28;1910;-51
2021/06/08 03:17:55;;;;;;;;;;;;;;;21.13;55.09;100719.06;5018236;28;1073;-56
2021/06/08 03:20:23;;;;;;;;;;;;;;;21.61;54.49;100721.44;5019090;28;717;-56
2021/06/08 03:22:49;;;;;;;;;;;;;;;22.00;53.70;100716.47;5018877;28;816;-57
2021/06/08 03:25:15;;;;;;;;;;;;;;;22.03;53.48;100718.59;5018969;28;817;-55
2021/06/08 03:27:41;;;;;;;;;;;;;;;22.52;52.37;100725.19;5018799;28;828;-57
2021/06/08 03:30:07;;;;;;;;;;;;;;;22.45;52.80;100724.00;5018652;28;824;-57
2021/06/08 03:32:34;;;;;;;;;;;;;;;22.51;52.76;100726.34;5018288;28;1023;-57
2021/06/08 03:34:59;;;;;;;;;;;;;;;22.65;52.45;100733.75;5019805;28;1906;-58
2021/06/08 03:37:25;;;;;;;;;;;;;;;22.75;52.32;100735.44;5018492;28;944;-57
2021/06/08 03:39:51;;;;;;;;;;;;;;;21.97;54.71;100733.69;5019930;28;793;-57
2021/06/08 03:42:16;;;;;;;;;;;;;;;21.68;55.65;100737.63;5018564;28;788;-58
2021/06/08 03:44:42;;;;;;;;;;;;;;;21.39;54.24;100737.94;4997983;28;1097;-59
2021/06/08 03:47:07;;;;;;;;;;;;;;;21.61;55.94;100742.75;4998845;28;1389;-59
2021/06/08 03:49:33;;;;;;;;;;;;;;;21.98;55.17;100738.09;5019559;28;732;-58
2021/06/08 03:51:58;;;;;;;;;;;;;;;22.25;54.30;100739.16;5019097;28;748;-58
2021/06/08 03:54:24;;;;;;;;;;;;;;;22.56;53.23;100739.25;5019450;28;1980;-60
2021/06/08 03:56:52;;;;;;;;;;;;;;;22.70;53.00;100740.00;5019444;28;745;-53
2021/06/08 03:59:18;;;;;;;;;;;;;;;22.36;53.66;100748.88;5017951;28;803;-58
2021/06/08 04:01:44;;;;;;;;;;;;;;;21.91;55.19;100751.53;5018960;28;1116;-57
2021/06/08 04:04:09;;;;;;;;;;;;;;;21.64;54.98;100753.22;5034651;28;948;-60
2021/06/08 04:06:35;;;;;;;;;;;;;;;21.65;54.33;100752.09;5019195;28;488;-59
2021/06/08 04:09:04;;;;;;;;;;;;;;;21.90;55.46;100749.91;5016579;28;865;-59
2021/06/08 04:11:29;;;;;;;;;;;;;;;22.18;54.66;100757.00;5019488;28;776;-59
2021/06/08 04:13:56;;;;;;;;;;;;;;;22.44;53.65;100752.84;5017786;28;1910;-59
2021/06/08 04:16:21;;;;;;;;;;;;;;;22.39;53.82;100753.78;5023994;28;1021;-59
2021/06/08 04:18:47;;;;;;;;;;;;;;;22.26;54.10;100749.91;5020864;28;965;-53
2021/06/08 04:21:13;;;;;;;;;;;;;;;21.81;55.12;100747.88;5037487;28;807;-57
2021/06/08 04:23:38;;;;;;;;;;;;;;;21.61;54.80;100748.31;5038019;28;796;-58
2021/06/08 04:26:04;;;;;;;;;;;;;;;21.68;55.12;100752.28;5039070;28;743;-57
2021/06/08 04:28:29;;;;;;;;;;;;;;;22.03;54.96;100749.06;5038507;28;856;-58
2021/06/08 04:30:55;;;;;;;;;;;;;;;22.41;53.88;100759.81;5038277;28;749;-59
2021/06/08 04:33:25;;;;;;;;;;;;;;;22.40;53.74;100758.22;5038429;28;987;-59
2021/06/08 04:35:50;;;;;;;;;;;;;;;21.61;55.49;100760.19;5038275;28;1906;-59
2021/06/08 04:38:16;;;;;;;;;;;;;;;21.32;55.47;100758.53;5038527;28;760;-59
2021/06/08 04:40:42;;;;;;;;;;;;;;;21.81;53.96;100764.47;5038500;28;859;-59
2021/06/08 04:43:08;;;;;;;;;;;;;;;22.03;52.87;100768.44;5020535;28;791;-59
2021/06/08 04:45:39;;;;;;;;;;;;;;;21.99;52.59;100764.66;5038615;28;837;-59
2021/06/08 04:48:05;;;;;;;;;;;;;;;22.07;52.22;100772.22;5037970;28;972;-59
2021/06/08 04:50:30;;;;;;;;;;;;;;;22.10;51.72;100766.06;5019635;28;770;-58
2021/06/08 04:53:01;;;;;;;;;;;;;;;21.86;52.25;100772.66;5020929;28;803;-59
2021/06/08 04:55:27;;;;;;;;;;;;;;;22.09;51.39;100775.50;5038194;28;1914;-59
2021/06/08 04:57:53;;;;;;;;;;;;;;;22.10;51.23;100770.78;5037939;28;808;-59
2021/06/08 05:00:18;;;;;;;;;;;;;;;22.09;51.40;100774.69;5037876;28;768;-59
2021/06/08 05:02:47;;;;;;;;;;;;;;;22.10;51.14;100771.59;5019282;28;1133;-59
2021/06/08 05:05:25;;;;;;;;;;;;;;;21.94;51.55;100773.88;5037917;28;730;-59
2021/06/08 05:08:05;;;;;;;;;;;;;;;22.08;51.04;100771.09;5038114;28;756;-59
2021/06/08 05:10:31;;;;;;;;;;;;;;;22.05;51.40;100772.53;5020243;28;832;-59
2021/06/08 05:12:59;;;;;;;;;;;;;;;21.99;51.63;100772.94;5037935;28;523;-59
2021/06/08 05:15:25;;;;;;;;;;;;;;;21.94;51.61;100784.16;5020426;28;1910;-59
2021/06/08 05:17:50;;;;;;;;;;;;;;;21.91;51.88;100779.22;5019504;28;1054;-60
2021/06/08 05:20:15;;;;;;;;;;;;;;;22.13;50.98;100775.69;5035364;28;932;-58
2021/06/08 05:22:41;;;;;;;;;;;;;;;22.13;51.17;100784.84;5037936;28;847;-59
2021/06/08 05:25:07;;;;;;;;;;;;;;;21.98;51.45;100785.16;5036380;28;768;-59
2021/06/08 05:27:33;;;;;;;;;;;;;;;22.01;51.59;100784.56;5037796;28;804;-59
2021/06/08 05:29:58;;;;;;;;;;;;;;;21.94;51.67;100782.19;5037843;28;756;-59
2021/06/08 05:32:24;;;;;;;;;;;;;;;21.96;51.83;100781.88;5035629;28;948;-58
2021/06/08 05:34:49;;;;;;;;;;;;;;;21.80;52.02;100773.91;5019854;28;1993;-59
2021/06/08 05:37:15;;;;;;;;;;;;;;;22.03;51.50;100773.97;5037226;28;819;-59
2021/06/08 05:39:40;;;;;;;;;;;;;;;21.91;51.71;100776.44;5019128;28;868;-58
2021/06/08 05:42:09;;;;;;;;;;;;;;;22.05;51.37;100780.03;5037237;28;843;-58
2021/06/08 05:44:34;;;;;;;;;;;;;;;22.28;50.85;100774.53;5019070;28;794;-58
2021/06/08 05:47:04;;;;;;;;;;;;;;;21.93;51.58;100771.44;5019060;28;960;-58
2021/06/08 05:49:29;;;;;;;;;;;;;;;21.93;51.94;100768.66;5036975;28;1011;-58
2021/06/08 05:51:57;;;;;;;;;;;;;;;22.03;51.51;100771.19;5018814;28;865;-58
2021/06/08 05:54:23;;;;;;;;;;;;;;;22.13;51.12;100776.53;5003332;28;1910;-57
2021/06/08 05:56:48;;;;;;;;;;;;;;;22.29;50.83;100773.41;5037162;28;777;-55
2021/06/08 05:59:16;;;;;;;;;;;;;;;22.18;50.90;100767.28;5019490;28;811;-59
2021/06/08 06:01:41;;;;;;;;;;;;;;;21.83;52.09;100759.44;5019051;28;1104;-59
2021/06/08 06:04:07;;;;;;;;;;;;;;;21.92;51.94;100770.59;5035380;28;1038;-57
2021/06/08 06:06:32;;;;;;;;;;;;;;;21.82;52.10;100766.09;5018908;28;1239;-59
2021/06/08 06:08:58;;;;;;;;;;;;;;;22.03;51.53;100768.44;5002740;28;1132;-59
2021/06/08 06:11:23;;;;;;;;;;;;;;;22.10;51.12;100774.34;5018725;28;930;-46
2021/06/08 06:14:02;;;;;;;;;;;;;;;21.85;51.94;100761.91;5036474;28;2285;-48
2021/06/08 06:16:30;;;;;;;;;;;;;;;22.15;51.17;100765.13;5020558;28;1181;-56
2021/06/08 06:18:56;;;;;;;;;;;;;;;22.17;50.97;100766.44;4999006;28;1027;-59
2021/06/08 06:21:21;;;;;;;;;;;;;;;22.04;51.51;100764.53;5017024;28;725;-59
2021/06/08 06:23:46;;;;;;;;;;;;;;;21.84;51.95;100769.41;5017327;28;729;-59
2021/06/08 06:26:12;;;;;;;;;;;;;;;21.80;51.85;100776.69;5016958;28;772;-58
2021/06/08 06:28:38;;;;;;;;;;;;;;;21.91;51.71;100768.13;5015084;28;936;-53
2021/06/08 06:31:05;;;;;;;;;;;;;;;22.04;51.49;100773.66;5015448;28;1067;-56
2021/06/08 06:33:31;;;;;;;;;;;;;;;21.92;51.77;100762.28;5030712;28;832;-56
2021/06/08 06:35:57;;;;;;;;;;;;;;;21.84;51.89;100758.31;5018292;28;1977;-53
2021/06/08 06:38:22;;;;;;;;;;;;;;;21.84;52.09;100758.31;5019053;28;803;-55
2021/06/08 06:40:48;;;;;;;;;;;;;;;21.83;52.21;100764.97;5018883;28;765;-56
2021/06/08 06:43:14;;;;;;;;;;;;;;;21.83;52.03;100758.63;5036239;28;749;-57
2021/06/08 06:45:40;;;;;;;;;;;;;;;21.82;52.21;100757.00;5018040;28;794;-57
2021/06/08 06:48:07;;;;;;;;;;;;;;;21.98;51.72;100754.69;5035898;28;1030;-56
2021/06/08 06:50:34;;;;;;;;;;;;;;;21.98;51.54;100757.47;5018772;28;780;-56
2021/06/08 06:52:59;;;;;;;;;;;;;;;22.10;51.33;100752.22;5036268;28;685;-53
2021/06/08 06:55:25;;;;;;;;;;;;;;;22.02;51.58;100748.25;5018641;28;1909;-50
2021/06/08 06:57:50;;;;;;;;;;;;;;;22.11;51.16;100751.09;5036103;28;843;-57
2021/06/08 07:00:16;;;;;;;;;;;;;;;22.15;51.09;100752.09;5036075;28;824;-54
2021/06/08 07:02:41;;;;;;;;;;;;;;;22.01;51.52;100748.56;5035826;28;1128;-57
2021/06/08 07:05:08;;;;;;;;;;;;;;;22.00;51.66;100752.44;5018371;28;789;-57
2021/06/08 07:07:33;;;;;;;;;;;;;;;22.16;51.21;100742.66;5036126;28;788;-58
2021/06/08 07:09:59;;;;;;;;;;;;;;;21.93;51.83;100749.28;5018596;28;761;-57
2021/06/08 07:12:24;;;;;;;;;;;;;;;22.03;51.73;100751.81;5018058;28;906;-57
2021/06/08 07:14:50;;;;;;;;;;;;;;;21.94;51.89;100751.75;5017869;28;2025;-58
2021/06/08 07:17:15;;;;;;;;;;;;;;;21.95;51.78;100742.31;5017899;28;1180;-58
2021/06/08 07:19:41;;;;;;;;;;;;;;;22.04;51.69;100742.38;5018391;28;1574;-58
2021/06/08 07:22:07;;;;;;;;;;;;;;;22.01;51.66;100745.78;5018235;28;840;-59
2021/06/08 07:24:33;;;;;;;;;;;;;;;22.10;51.63;100740.31;5018499;28;792;-57
2021/06/08 07:26:59;;;;;;;;;;;;;;;22.14;51.61;100739.38;5036052;28;840;-57
2021/06/08 07:29:24;;;;;;;;;;;;;;;22.08;51.77;100740.63;5035783;28;808;-56
2021/06/08 07:32:03;;;;;;;;;;;;;;;22.25;51.01;100736.38;5035681;28;1022;-57
2021/06/08 07:34:40;;;;;;;;;;;;;;;22.08;51.58;100734.25;5017791;28;1971;-57
2021/06/08 07:37:07;;;;;;;;;;;;;;;22.24;51.08;100732.78;5035807;28;827;-57
2021/06/08 07:39:51;;;;;;;;;;;;;;;22.17;51.38;100735.16;5034794;28;816;-57
2021/06/08 07:42:24;;;;;;;;;;;;;;;22.07;51.67;100732.66;5036029;28;816;-57
2021/06/08 07:44:58;;;;;;;;;;;;;;;22.13;51.56;100742.47;5037784;28;883;-57
2021/06/08 07:47:24;;;;;;;;;;;;;;;22.19;51.12;100732.91;5039277;28;1011;-56
2021/06/08 07:49:50;;;;;;;;;;;;;;;22.14;51.40;100733.03;5020759;28;907;-56
2021/06/08 07:52:16;;;;;;;;;;;;;;;22.05;51.78;100731.00;5039449;28;808;-56
2021/06/08 07:54:41;;;;;;;;;;;;;;;22.06;51.69;100731.81;5039381;28;1963;-57
2021/06/08 07:57:07;;;;;;;;;;;;;;;22.17;51.41;100727.66;5039123;28;812;-57
2021/06/08 07:59:32;;;;;;;;;;;;;;;21.92;52.09;100723.53;5039141;28;787;-56
2021/06/08 08:01:57;;;;;;;;;;;;;;;22.16;51.48;100727.97;5021355;28;1097;-57
2021/06/08 08:04:23;;;;;;;;;;;;;;;22.12;51.51;100733.34;5037709;28;949;-57
2021/06/08 08:06:49;;;;;;;;;;;;;;;21.98;51.88;100735.31;5039067;28;760;-57
2021/06/08 08:09:15;;;;;;;;;;;;;;;22.09;51.65;100733.13;5039391;28;745;-57
2021/06/08 08:11:43;;;;;;;;;;;;;;;22.19;51.25;100730.16;5038752;28;816;-56
2021/06/08 08:14:09;;;;;;;;;;;;;;;22.10;51.56;100735.59;5021541;28;1906;-57
2021/06/08 08:16:34;;;;;;;;;;;;;;;21.88;52.06;100730.81;5021275;28;1054;-58
2021/06/08 08:19:00;;;;;;;;;;;;;;;22.18;51.38;100734.84;5020330;28;1007;-58
2021/06/08 08:21:25;;;;;;;;;;;;;;;22.25;51.01;100739.16;5038014;28;793;-59
2021/06/08 08:23:51;;;;;;;;;;;;;;;22.05;51.61;100731.00;5038965;28;788;-56
2021/06/08 08:26:16;;;;;;;;;;;;;;;22.00;51.92;100733.06;5038399;28;832;-59
2021/06/08 08:28:42;;;;;;;;;;;;;;;21.88;52.03;100734.44;5038830;28;827;-59
2021/06/08 08:31:09;;;;;;;;;;;;;;;22.19;51.24;100724.63;5038709;28;859;-58
2021/06/08 08:33:37;;;;;;;;;;;;;;;22.05;51.58;100725.47;5037789;28;964;-58
2021/06/08 08:36:03;;;;;;;;;;;;;;;22.11;51.50;100731.69;5038460;28;1988;-58
2021/06/08 08:38:29;;;;;;;;;;;;;;;21.93;52.15;100727.94;5020015;28;782;-58
2021/06/08 08:40:56;;;;;;;;;;;;;;;22.07;51.53;100730.69;5037511;28;1203;-58
2021/06/08 08:43:21;;;;;;;;;;;;;;;21.96;52.02;100734.81;5037131;28;1310;-58
2021/06/08 08:45:47;;;;;;;;;;;;;;;21.96;51.94;100732.84;5038166;28;1286;-58
2021/06/08 08:48:12;;;;;;;;;;;;;;;21.99;51.90;100725.88;5037383;28;1007;-58
2021/06/08 08:50:38;;;;;;;;;;;;;;;21.79;52.34;100714.13;5020571;28;820;-49
2021/06/08 08:53:04;;;;;;;;;;;;;;;22.03;51.63;100726.91;5038103;28;808;-53
2021/06/08 08:55:30;;;;;;;;;;;;;;;22.00;51.66;100727.53;5036991;28;1981;-55
2021/06/08 08:57:57;;;;;;;;;;;;;;;21.97;51.82;100723.44;5038275;28;824;-51
2021/06/08 09:00:24;;;;;;;;;;;;;;;21.83;52.43;100728.19;5037921;28;894;-49
2021/06/08 09:02:51;;;;;;;;;;;;;;;21.86;52.07;100728.38;5037095;28;1225;-54
2021/06/08 09:05:16;;;;;;;;;;;;;;;22.09;51.45;100725.66;5020443;28;809;-51
2021/06/08 09:07:42;;;;;;;;;;;;;;;21.84;52.36;100727.88;5019835;28;972;-51
2021/06/08 09:10:09;;;;;;;;;;;;;;;22.12;51.43;100722.28;5037898;28;845;-54
2021/06/08 09:12:35;;;;;;;;;;;;;;;22.11;51.53;100720.63;5037883;28;851;-55
2021/06/08 09:15:02;;;;;;;;;;;;;;;21.91;51.95;100723.84;5037560;28;1914;-52
2021/06/08 09:17:28;;;;;;;;;;;;;;;21.99;51.52;100720.34;5036710;28;1183;-56
2021/06/08 09:19:53;;;;;;;;;;;;;;;22.02;51.57;100711.41;5019366;28;794;-56
2021/06/08 09:22:19;;;;;;;;;;;;;;;22.04;51.51;100714.69;5037471;28;772;-56
2021/06/08 09:24:46;;;;;;;;;;;;;;;22.03;51.50;100713.91;5037476;28;788;-56
2021/06/08 09:27:12;;;;;;;;;;;;;;;22.09;51.29;100708.22;5038286;28;772;-56
2021/06/08 09:29:39;;;;;;;;;;;;;;;21.87;51.85;100710.63;5037199;28;784;-58
2021/06/08 09:32:30;;;;;;;;;;;;;;;21.91;51.50;100715.53;5037092;28;1016;-58
2021/06/08 09:34:59;;;;;;;;;;;;;;;21.88;51.73;100715.06;5035212;28;1906;-57
2021/06/08 09:37:38;;;;;;;;;;;;;;;21.85;51.79;100710.16;5037298;28;875;-58
2021/06/08 09:40:20;;;;;;;;;;;;;;;22.05;51.30;100713.56;5036994;28;768;-57
2021/06/08 09:42:46;;;;;;;;;;;;;;;21.94;51.75;100706.63;5036966;28;856;-58
2021/06/08 09:45:16;;;;;;;;;;;;;;;22.05;51.42;100699.72;5037352;28;804;-57
2021/06/08 09:47:42;;;;;;;;;;;;;;;22.06;51.16;100704.13;5036402;28;1007;-58
2021/06/08 09:50:27;;;;;;;;;;;;;;;22.14;50.96;100703.38;5036934;28;768;-57
2021/06/08 09:53:13;;;;;;;;;;;;;;;22.02;51.45;100703.09;5037202;28;1060;-56
2021/06/08 09:55:57;;;;;;;;;;;;;;;21.98;51.44;100696.56;5036918;28;1914;-57
2021/06/08 09:58:22;;;;;;;;;;;;;;;22.04;51.61;100700.84;5037199;28;792;-58
2021/06/08 10:01:04;;;;;;;;;;;;;;;22.02;51.65;100703.94;5019533;28;1100;-57
2021/06/08 10:03:39;;;;;;;;;;;;;;;22.11;51.29;100695.69;5035971;28;1081;-57
2021/06/08 10:06:08;;;;;;;;;;;;;;;22.22;50.94;100693.50;5036753;28;819;-58
2021/06/08 10:08:35;;;;;;;;;;;;;;;21.75;52.53;100693.75;5036940;28;756;-57
2021/06/08 10:11:01;;;;;;;;;;;;;;;22.00;51.88;100695.13;5036319;28;812;-55
2021/06/08 10:13:26;;;;;;;;;;;;;;;22.04;51.45;100700.84;5019231;28;811;-57
2021/06/08 10:15:52;;;;;;;;;;;;;;;22.05;51.39;100710.81;5036673;28;1969;-56
2021/06/08 10:18:18;;;;;;;;;;;;;;;22.03;51.14;100704.75;5035722;28;1007;-57
2021/06/08 10:20:47;;;;;;;;;;;;;;;21.68;52.13;100704.41;5018741;28;930;-58
2021/06/08 10:23:27;;;;;;;;;;;;;;;21.93;51.18;100707.75;5036713;28;784;-58
2021/06/08 10:25:54;;;;;;;;;;;;;;;21.96;50.84;100704.38;5036249;28;803;-58
2021/06/08 10:28:19;;;;;;;;;;;;;;;21.91;51.04;100698.94;5036901;28;748;-59
2021/06/08 10:30:45;;;;;;;;;;;;;;;21.81;51.24;100702.75;5036454;28;776;-59
2021/06/08 10:33:10;;;;;;;;;;;;;;;21.80;51.20;100701.13;5018111;28;968;-57
2021/06/08 10:35:36;;;;;;;;;;;;;;;21.84;50.95;100697.44;5036571;28;1910;-57
2021/06/08 10:38:03;;;;;;;;;;;;;;;21.68;51.32;100698.88;5036360;28;812;-57
2021/06/08 10:40:28;;;;;;;;;;;;;;;21.70;51.35;100694.69;5036394;28;945;-57
2021/06/08 10:42:54;;;;;;;;;;;;;;;21.55;51.47;100692.25;5036569;28;811;-56
2021/06/08 10:45:19;;;;;;;;;;;;;;;21.39;51.65;100691.72;5036703;28;753;-57
2021/06/08 10:48:02;;;;;;;;;;;;;;;21.53;51.16;100680.66;5018124;28;1092;-56
2021/06/08 10:50:28;;;;;;;;;;;;;;;21.70;50.91;100680.03;5021321;28;717;-57
2021/06/08 10:52:56;;;;;;;;;;;;;;;21.69;50.89;100679.22;5036129;28;768;-56
2021/06/08 10:55:25;;;;;;;;;;;;;;;21.45;51.50;100673.09;5036014;28;1985;-57
2021/06/08 10:57:50;;;;;;;;;;;;;;;21.56;51.08;100673.69;5036279;28;780;-57
2021/06/08 11:00:25;;;;;;;;;;;;;;;21.45;51.40;100662.81;5035945;28;772;-58
2021/06/08 11:03:00;;;;;;;;;;;;;;;21.61;50.72;100660.56;5035574;28;1089;-58
2021/06/08 11:05:44;;;;;;;;;;;;;;;21.45;51.23;100656.50;5036267;28;780;-50
2021/06/08 11:08:09;;;;;;;;;;;;;;;21.49;51.02;100655.56;5036028;28;738;-58
2021/06/08 11:10:42;;;;;;;;;;;;;;;21.48;51.23;100647.56;5018551;28;816;-57
2021/06/08 11:13:09;;;;;;;;;;;;;;;21.47;51.04;100645.91;5036045;28;998;-57
2021/06/08 11:15:39;;;;;;;;;;;;;;;21.47;51.59;100646.72;5036217;28;1914;-58
2021/06/08 11:18:19;;;;;;;;;;;;;;;21.57;51.24;100642.13;5036205;28;1081;-57
2021/06/08 11:21:05;;;;;;;;;;;;;;;21.69;51.14;100634.13;5039844;28;757;-58
2021/06/08 11:23:31;;;;;;;;;;;;;;;21.40;52.09;100629.72;5032619;28;1210;-60
2021/06/08 11:25:57;;;;;;;;;;;;;;;21.61;51.43;100627.38;5022348;28;832;-58
2021/06/08 11:28:22;;;;;;;;;;;;;;;21.29;52.73;100625.56;5039735;28;831;-59
2021/06/08 11:30:54;;;;;;;;;;;;;;;21.24;52.43;100625.66;5039518;28;776;-58
2021/06/08 11:33:26;;;;;;;;;;;;;;;20.98;52.03;100632.53;5039492;28;1022;-58
2021/06/08 11:35:51;;;;;;;;;;;;;;;21.59;52.98;100626.03;5039564;28;1965;-58
2021/06/08 11:38:23;;;;;;;;;;;;;;;22.18;53.02;100624.06;5039516;28;760;-59
2021/06/08 11:40:58;;;;;;;;;;;;;;;22.47;53.31;100622.81;5039634;28;801;-58
2021/06/08 11:43:23;;;;;;;;;;;;;;;22.21;55.13;100623.44;5039886;28;800;-59
2021/06/08 11:46:27;;;;;;;;;;;;;;;21.97;56.02;100612.69;5039374;28;749;-59
2021/06/08 11:49:13;;;;;;;;;;;;;;;21.67;52.95;100612.28;5017825;28;1451;-58
2021/06/08 11:51:39;;;;;;;;;;;;;;;21.59;51.56;100612.19;5039511;28;813;-59
2021/06/08 11:54:11;;;;;;;;;;;;;;;21.87;55.46;100624.81;5039149;28;1967;-58
2021/06/08 11:56:46;;;;;;;;;;;;;;;22.21;56.53;100626.19;5039303;28;828;-58
2021/06/08 11:59:11;;;;;;;;;;;;;;;22.64;55.51;100633.19;5039620;28;800;-58
2021/06/08 12:01:44;;;;;;;;;;;;;;;22.29;56.22;100629.38;5038797;28;1139;-58
2021/06/08 12:04:09;;;;;;;;;;;;;;;22.27;56.22;100626.88;5035901;28;949;-57
2021/06/08 12:06:53;;;;;;;;;;;;;;;22.05;54.67;100636.84;5020998;28;843;-58
2021/06/08 12:09:19;;;;;;;;;;;;;;;21.58;54.79;100638.25;5038634;28;740;-57
2021/06/08 12:11:45;;;;;;;;;;;;;;;21.79;55.18;100630.31;5021100;28;868;-58
2021/06/08 12:14:10;;;;;;;;;;;;;;;21.98;52.64;100635.66;5021573;28;1910;-59
2021/06/08 12:16:36;;;;;;;;;;;;;;;21.36;53.25;100637.00;5020945;28;1125;-58
2021/06/08 12:19:08;;;;;;;;;;;;;;;21.65;51.68;100635.88;5020880;28;1023;-58
2021/06/08 12:21:33;;;;;;;;;;;;;;;21.69;51.29;100634.13;5038998;28;796;-54
2021/06/08 12:23:59;;;;;;;;;;;;;;;21.43;51.48;100637.41;5038551;28;864;-55
2021/06/08 12:26:25;;;;;;;;;;;;;;;21.65;50.87;100644.19;5038642;28;784;-55
2021/06/08 12:29:07;;;;;;;;;;;;;;;21.44;50.88;100646.53;5038663;28;772;-56
2021/06/08 12:31:33;;;;;;;;;;;;;;;21.53;50.31;100648.31;5037674;28;868;-58
2021/06/08 12:33:59;;;;;;;;;;;;;;;21.42;50.81;100655.16;5038208;28;1981;-58
2021/06/08 12:36:24;;;;;;;;;;;;;;;21.85;52.34;100643.72;5021054;28;792;-57
2021/06/08 12:38:54;;;;;;;;;;;;;;;22.31;53.14;100654.78;5020584;28;796;-58
2021/06/08 12:41:26;;;;;;;;;;;;;;;22.17;55.10;100650.13;5038786;28;788;-58
2021/06/08 12:43:52;;;;;;;;;;;;;;;21.99;57.02;100648.38;5038817;28;788;-59
2021/06/08 12:46:24;;;;;;;;;;;;;;;21.82;56.60;100644.31;5038396;28;780;-58
2021/06/08 12:49:09;;;;;;;;;;;;;;;21.39;54.41;100647.44;5038156;28;959;-58
2021/06/08 12:51:38;;;;;;;;;;;;;;;21.76;54.96;100658.59;5038208;28;864;-58
2021/06/08 12:54:04;;;;;;;;;;;;;;;22.11;56.90;100668.00;5038235;28;1910;-58
2021/06/08 12:56:29;;;;;;;;;;;;;;;22.35;56.47;100667.72;5038313;28;784;-58